createdAt,value
2019-05-14T00:02:04.301Z,1.13
2019-05-14T00:04:35.467Z,1.17
2019-05-14T00:07:03.845Z,1.30
2019-05-14T00:09:32.351Z,1.10
2019-05-14T00:12:04.960Z,1.10
2019-05-14T00:14:40.072Z,1.67
2019-05-14T00:17:11.293Z,1.33
2019-05-14T00:19:41.669Z,1.30
2019-05-14T00:22:11.806Z,1.10
2019-05-14T00:24:43.650Z,1.10
2019-05-14T00:27:14.877Z,1.20
2019-05-14T00:29:44.885Z,1.40
2019-05-14T00:32:19.013Z,1.13
2019-05-14T00:34:47.425Z,1.30
2019-05-14T00:37:16.053Z,1.33
2019-05-14T00:39:52.112Z,1.20
2019-05-14T00:42:23.198Z,1.23
2019-05-14T00:44:57.689Z,1.20
2019-05-14T00:47:24.399Z,1.10
2019-05-14T00:49:55.227Z,1.30
2019-05-14T00:52:26.406Z,1.20
2019-05-14T00:54:55.552Z,1.70
2019-05-14T00:57:26.650Z,0.80
2019-05-14T00:59:55.039Z,1.20
2019-05-14T01:02:25.979Z,1.10
2019-05-14T01:04:56.481Z,1.23
2019-05-14T01:07:24.864Z,1.20
2019-05-14T01:09:56.245Z,1.20
2019-05-14T01:12:24.660Z,1.00
2019-05-14T01:15:07.228Z,1.00
2019-05-14T01:17:23.145Z,0.90
2019-05-14T01:19:54.001Z,0.80
2019-05-14T01:22:22.430Z,1.00
2019-05-14T01:24:56.642Z,0.97
2019-05-14T01:27:31.721Z,1.30
2019-05-14T01:30:05.771Z,1.03
2019-05-14T01:32:41.955Z,1.00
2019-05-14T01:35:14.777Z,1.20
2019-05-14T01:37:43.404Z,1.13
2019-05-14T01:40:14.358Z,1.10
2019-05-14T01:42:42.735Z,0.93
2019-05-14T01:45:24.265Z,1.20
2019-05-14T01:47:44.369Z,0.80
2019-05-14T01:50:12.817Z,0.90
2019-05-14T01:52:41.742Z,1.00
2019-05-14T01:55:15.566Z,1.00
2019-05-14T01:57:43.967Z,1.00
2019-05-14T02:00:18.729Z,1.00
2019-05-14T02:02:47.125Z,0.90
2019-05-14T02:05:17.216Z,1.00
2019-05-14T02:07:54.162Z,0.97
2019-05-14T02:10:26.630Z,1.30
2019-05-14T02:12:58.000Z,1.07
2019-05-14T02:15:37.198Z,0.67
2019-05-14T02:18:02.300Z,1.00
2019-05-14T02:20:32.135Z,0.90
2019-05-14T02:23:01.796Z,0.90
2019-05-14T02:25:34.582Z,1.03
2019-05-14T02:28:04.858Z,0.90
2019-05-14T02:30:48.123Z,1.20
2019-05-14T02:33:11.249Z,1.10
2019-05-14T02:35:39.951Z,1.00
2019-05-14T02:38:10.832Z,0.90
2019-05-14T02:40:40.922Z,1.30
2019-05-14T02:43:09.717Z,1.00
2019-05-14T02:46:01.946Z,0.90
2019-05-14T02:48:20.201Z,0.90
2019-05-14T02:50:51.624Z,0.87
2019-05-14T02:53:29.675Z,1.27
2019-05-14T02:55:59.484Z,1.00
2019-05-14T02:58:31.094Z,1.43
2019-05-14T03:01:00.556Z,0.83
2019-05-14T03:03:35.159Z,1.13
2019-05-14T03:06:05.432Z,1.00
2019-05-14T03:08:35.461Z,1.23
2019-05-14T03:11:09.696Z,1.00
2019-05-14T03:13:41.529Z,1.30
2019-05-14T03:16:26.606Z,1.00
2019-05-14T03:18:43.615Z,0.90
2019-05-14T03:21:11.996Z,1.30
2019-05-14T03:23:40.483Z,1.07
2019-05-14T03:26:14.961Z,1.07
2019-05-14T03:28:49.885Z,1.13
2019-05-14T03:31:23.122Z,1.00
2019-05-14T03:33:53.068Z,1.07
2019-05-14T03:36:33.485Z,1.03
2019-05-14T03:39:10.180Z,1.23
2019-05-14T03:41:39.674Z,1.20
2019-05-14T03:44:09.884Z,1.53
2019-05-14T03:46:49.450Z,1.27
2019-05-14T03:49:09.547Z,1.20
2019-05-14T03:51:40.686Z,1.07
2019-05-14T03:54:12.561Z,1.20
2019-05-14T03:56:43.491Z,1.23
2019-05-14T03:59:14.896Z,1.03
2019-05-14T04:01:45.233Z,1.20
2019-05-14T04:04:19.390Z,1.00
2019-05-14T04:06:50.664Z,1.17
2019-05-14T04:09:20.986Z,1.30
2019-05-14T04:11:52.693Z,1.03
2019-05-14T04:14:23.009Z,1.13
2019-05-14T04:17:09.292Z,1.03
2019-05-14T04:19:49.555Z,0.90
2019-05-14T04:22:21.634Z,1.00
2019-05-14T04:24:54.414Z,1.27
2019-05-14T04:27:25.440Z,1.10
2019-05-14T04:29:58.979Z,1.40
2019-05-14T04:32:29.415Z,1.10
2019-05-14T04:35:04.509Z,1.47
2019-05-14T04:37:36.013Z,1.10
2019-05-14T04:40:10.048Z,1.13
2019-05-14T04:42:40.501Z,1.03
2019-05-14T04:45:13.144Z,1.20
2019-05-14T04:47:44.239Z,1.70
2019-05-14T04:50:19.827Z,1.60
2019-05-14T04:52:49.092Z,1.17
2019-05-14T04:55:16.458Z,1.40
2019-05-14T04:57:50.023Z,1.07
2019-05-14T05:00:20.282Z,1.00
2019-05-14T05:02:51.754Z,1.37
2019-05-14T05:05:25.721Z,1.00
2019-05-14T05:07:55.741Z,1.10
2019-05-14T05:10:25.803Z,1.27
2019-05-14T05:12:58.593Z,1.17
2019-05-14T05:15:29.729Z,1.60
2019-05-14T05:18:03.908Z,1.10
2019-05-14T05:20:40.102Z,1.10
2019-05-14T05:23:08.742Z,1.07
2019-05-14T05:25:49.188Z,1.50
2019-05-14T05:28:19.021Z,1.13
2019-05-14T05:30:49.528Z,1.30
2019-05-14T05:33:22.169Z,1.20
2019-05-14T05:35:51.319Z,1.53
2019-05-14T05:38:19.968Z,1.13
2019-05-14T05:40:48.746Z,1.57
2019-05-14T05:43:28.395Z,1.30
2019-05-14T05:45:56.230Z,1.00
2019-05-14T05:48:31.149Z,1.43
2019-05-14T05:50:59.558Z,1.40
2019-05-14T05:53:28.711Z,1.30
2019-05-14T05:55:59.243Z,1.50
2019-05-14T05:58:30.701Z,1.30
2019-05-14T06:01:03.437Z,1.30
2019-05-14T06:03:30.463Z,1.53
2019-05-14T06:06:04.226Z,1.53
2019-05-14T06:08:51.951Z,1.53
2019-05-14T06:11:25.230Z,1.50
2019-05-14T06:13:53.630Z,1.40
2019-05-14T06:16:22.287Z,1.17
2019-05-14T06:18:50.683Z,1.17
2019-05-14T06:21:19.525Z,1.55
2019-05-14T06:23:49.696Z,1.30
2019-05-14T06:26:19.601Z,2.05
2019-05-14T06:28:52.573Z,1.17
2019-05-14T06:31:21.041Z,1.47
2019-05-14T06:33:49.681Z,1.35
2019-05-14T06:36:19.432Z,1.20
2019-05-14T06:38:49.363Z,1.13
2019-05-14T06:41:21.418Z,1.42
2019-05-14T06:43:50.108Z,1.23
2019-05-14T06:46:19.268Z,1.50
2019-05-14T06:48:48.896Z,1.30
2019-05-14T06:51:19.869Z,1.20
2019-05-14T06:53:49.890Z,1.20
2019-05-14T06:56:21.788Z,1.37
2019-05-14T06:58:52.694Z,1.47
2019-05-14T07:01:29.200Z,1.10
2019-05-14T07:03:52.893Z,1.20
2019-05-14T07:06:21.538Z,1.50
2019-05-14T07:08:52.650Z,1.55
2019-05-14T07:11:20.092Z,1.20
2019-05-14T07:13:49.171Z,1.00
2019-05-14T07:16:19.865Z,1.37
2019-05-14T07:18:52.708Z,1.30
2019-05-14T07:21:18.781Z,1.27
2019-05-14T07:23:48.988Z,1.30
2019-05-14T07:26:19.771Z,1.22
2019-05-14T07:28:48.906Z,1.60
2019-05-14T07:31:18.777Z,1.10
2019-05-14T07:33:49.356Z,1.30
2019-05-14T07:36:19.625Z,1.80
2019-05-14T07:38:49.958Z,1.20
2019-05-14T07:41:19.246Z,1.25
2019-05-14T07:43:48.767Z,1.40
2019-05-14T07:46:19.132Z,1.35
2019-05-14T07:49:03.889Z,1.22
2019-05-14T07:51:19.046Z,1.07
2019-05-14T07:53:48.821Z,1.50
2019-05-14T07:56:23.009Z,1.60
2019-05-14T07:58:51.542Z,1.20
2019-05-14T08:01:20.504Z,1.20
2019-05-14T08:03:49.190Z,1.17
2019-05-14T08:06:19.053Z,1.40
2019-05-14T08:08:49.723Z,1.60
2019-05-14T08:11:19.099Z,1.60
2019-05-14T08:13:49.854Z,1.40
2019-05-14T08:16:18.783Z,1.40
2019-05-14T08:18:49.215Z,1.20
2019-05-14T08:21:19.313Z,1.23
2019-05-14T08:23:48.635Z,1.77
2019-05-14T08:26:19.062Z,1.20
2019-05-14T08:28:48.836Z,1.30
2019-05-14T08:31:21.220Z,1.40
2019-05-14T08:33:49.624Z,1.35
2019-05-14T08:36:18.779Z,1.20
2019-05-14T08:38:50.158Z,1.40
2019-05-14T08:41:19.824Z,1.17
2019-05-14T08:43:49.012Z,1.50
2019-05-14T08:46:19.261Z,1.30
2019-05-14T08:48:49.555Z,1.30
2019-05-14T08:51:18.713Z,1.50
2019-05-14T08:53:50.439Z,1.40
2019-05-14T08:56:19.142Z,1.40
2019-05-14T08:58:49.414Z,1.50
2019-05-14T09:01:19.969Z,1.65
2019-05-14T09:03:49.460Z,1.80
2019-05-14T09:06:20.125Z,1.72
2019-05-14T09:08:49.545Z,1.40
2019-05-14T09:11:26.131Z,1.45
2019-05-14T09:13:59.377Z,1.10
2019-05-14T09:16:39.483Z,1.30
2019-05-14T09:18:58.630Z,1.85
2019-05-14T09:21:29.458Z,1.60
2019-05-14T09:24:00.106Z,1.20
2019-05-14T09:26:28.627Z,1.37
2019-05-14T09:29:16.928Z,1.50
2019-05-14T09:31:34.053Z,1.32
2019-05-14T09:34:04.962Z,1.20
2019-05-14T09:36:33.357Z,1.62
2019-05-14T09:39:01.930Z,1.30
2019-05-14T09:41:33.232Z,1.40
2019-05-14T09:44:04.185Z,1.10
2019-05-14T09:46:34.178Z,1.20
2019-05-14T09:49:02.639Z,1.30
2019-05-14T09:51:32.827Z,1.10
2019-05-14T09:54:01.251Z,1.27
2019-05-14T09:56:29.637Z,1.17
2019-05-14T09:58:58.812Z,1.40
2019-05-14T10:01:27.800Z,1.12
2019-05-14T10:03:58.987Z,1.20
2019-05-14T10:06:28.440Z,1.30
2019-05-14T10:09:02.273Z,1.20
2019-05-14T10:11:33.419Z,0.90
2019-05-14T10:14:01.930Z,0.95
2019-05-14T10:16:30.431Z,1.10
2019-05-14T10:19:00.147Z,1.40
2019-05-14T10:21:29.299Z,0.90
2019-05-14T10:23:58.451Z,1.02
2019-05-14T10:26:28.867Z,1.00
2019-05-14T10:29:01.017Z,0.80
2019-05-14T10:31:29.413Z,0.80
2019-05-14T10:34:00.763Z,1.00
2019-05-14T10:36:29.989Z,1.10
2019-05-14T10:38:59.203Z,1.10
2019-05-14T10:41:29.020Z,1.10
2019-05-14T10:43:59.503Z,1.40
2019-05-14T10:46:29.202Z,1.20
2019-05-14T10:49:14.645Z,1.20
2019-05-14T10:51:29.153Z,0.88
2019-05-14T10:53:59.354Z,1.27
2019-05-14T10:56:30.815Z,1.12
2019-05-14T10:58:59.207Z,1.05
2019-05-14T11:01:28.511Z,0.93
2019-05-14T11:03:57.789Z,0.90
2019-05-14T11:06:26.177Z,1.12
2019-05-14T11:08:57.511Z,0.80
2019-05-14T11:11:25.910Z,1.10
2019-05-14T11:13:55.945Z,1.02
2019-05-14T11:16:24.348Z,1.30
2019-05-14T11:18:52.729Z,0.90
2019-05-14T11:21:26.463Z,1.02
2019-05-14T11:23:51.284Z,0.80
2019-05-14T11:26:24.832Z,1.10
2019-05-14T11:28:58.527Z,0.82
2019-05-14T11:31:29.459Z,0.80
2019-05-14T11:33:59.871Z,0.98
2019-05-14T11:36:29.288Z,0.88
2019-05-14T11:39:03.046Z,0.93
2019-05-14T11:41:28.698Z,0.90
2019-05-14T11:43:59.312Z,1.07
2019-05-14T11:46:41.738Z,0.93
2019-05-14T11:49:00.766Z,0.82
2019-05-14T11:51:57.859Z,0.90
2019-05-14T11:54:09.514Z,1.00
2019-05-14T11:56:41.840Z,0.98
2019-05-14T11:59:08.877Z,0.80
2019-05-14T12:01:39.241Z,0.93
2019-05-14T12:04:08.890Z,1.00
2019-05-14T12:06:39.059Z,0.95
2019-05-14T12:09:11.844Z,0.90
2019-05-14T12:11:38.695Z,1.00
2019-05-14T12:14:08.973Z,0.90
2019-05-14T12:16:40.180Z,0.90
2019-05-14T12:19:11.664Z,1.17
2019-05-14T12:21:40.070Z,1.00
2019-05-14T12:24:13.791Z,0.65
2019-05-14T12:26:38.820Z,0.85
2019-05-14T12:29:09.954Z,1.00
2019-05-14T12:31:38.704Z,0.70
2019-05-14T12:34:08.066Z,1.05
2019-05-14T12:36:42.700Z,0.80
2019-05-14T12:39:11.125Z,0.80
2019-05-14T12:41:42.670Z,0.80
2019-05-14T12:44:11.128Z,0.50
2019-05-14T12:46:39.529Z,0.75
2019-05-14T12:49:11.744Z,1.10
2019-05-14T12:51:42.986Z,0.95
2019-05-14T12:54:14.759Z,0.90
2019-05-14T12:56:43.176Z,0.80
2019-05-14T12:59:13.201Z,0.95
2019-05-14T13:01:49.188Z,0.72
2019-05-14T13:04:20.118Z,0.70
2019-05-14T13:06:48.472Z,1.20
2019-05-14T13:09:21.736Z,0.80
2019-05-14T13:11:50.113Z,1.00
2019-05-14T13:14:18.775Z,0.75
2019-05-14T13:16:48.713Z,0.80
2019-05-14T13:19:18.985Z,0.60
2019-05-14T13:21:48.940Z,0.78
2019-05-14T13:24:18.117Z,0.80
2019-05-14T13:26:50.602Z,1.30
2019-05-14T13:29:20.627Z,0.93
2019-05-14T13:31:49.724Z,0.90
2019-05-14T13:34:19.641Z,0.93
2019-05-14T13:36:48.922Z,1.20
2019-05-14T13:39:20.389Z,1.00
2019-05-14T13:41:48.787Z,0.75
2019-05-14T13:44:24.565Z,0.90
2019-05-14T13:46:48.599Z,0.93
2019-05-14T13:49:20.067Z,0.90
2019-05-14T13:51:51.263Z,0.90
2019-05-14T13:54:19.655Z,0.80
2019-05-14T13:56:48.365Z,0.77
2019-05-14T13:59:18.800Z,0.80
2019-05-14T14:01:48.700Z,0.60
2019-05-14T14:04:18.454Z,0.70
2019-05-14T14:06:49.069Z,0.60
2019-05-14T14:09:17.602Z,0.70
2019-05-14T14:11:48.136Z,0.70
2019-05-14T14:14:16.078Z,0.70
2019-05-14T14:16:48.772Z,0.80
2019-05-14T14:19:15.030Z,0.80
2019-05-14T14:21:43.369Z,0.60
2019-05-14T14:24:14.450Z,0.60
2019-05-14T14:26:42.840Z,0.90
2019-05-14T14:29:14.398Z,0.70
2019-05-14T14:31:45.791Z,0.70
2019-05-14T14:34:14.186Z,0.88
2019-05-14T14:36:44.215Z,1.40
2019-05-14T14:39:14.250Z,0.60
2019-05-14T14:41:44.524Z,0.70
2019-05-14T14:44:19.041Z,2.02
2019-05-14T14:46:48.388Z,1.32
2019-05-14T14:49:19.035Z,0.90
2019-05-14T14:51:49.127Z,0.70
2019-05-14T14:54:18.761Z,0.90
2019-05-14T14:56:48.868Z,0.62
2019-05-14T14:59:22.904Z,0.80
2019-05-14T15:01:51.302Z,1.27
2019-05-14T15:04:19.769Z,0.70
2019-05-14T15:06:50.938Z,1.10
2019-05-14T15:09:22.821Z,0.80
2019-05-14T15:11:54.193Z,1.00
2019-05-14T15:14:25.547Z,0.90
2019-05-14T15:17:00.152Z,0.70
2019-05-14T15:19:33.141Z,0.60
2019-05-14T15:22:04.263Z,0.60
2019-05-14T15:24:37.363Z,0.75
2019-05-14T15:27:15.303Z,0.60
2019-05-14T15:29:43.465Z,0.60
2019-05-14T15:32:11.922Z,0.80
2019-05-14T15:34:44.382Z,0.70
2019-05-14T15:37:12.774Z,0.73
2019-05-14T15:39:44.070Z,0.70
2019-05-14T15:42:13.950Z,0.67
2019-05-14T15:44:54.490Z,0.98
2019-05-14T15:47:12.936Z,0.50
2019-05-14T15:49:44.341Z,0.70
2019-05-14T15:52:14.382Z,0.50
2019-05-14T15:54:47.237Z,0.70
2019-05-14T15:57:15.936Z,0.70
2019-05-14T15:59:44.314Z,0.93
2019-05-14T16:02:12.966Z,0.60
2019-05-14T16:04:42.998Z,0.70
2019-05-14T16:07:20.956Z,0.80
2019-05-14T16:09:53.417Z,0.90
2019-05-14T16:12:24.669Z,0.60
2019-05-14T16:14:57.422Z,0.95
2019-05-14T16:17:27.846Z,0.90
2019-05-14T16:19:57.564Z,0.70
2019-05-14T16:22:25.952Z,0.60
2019-05-14T16:25:08.855Z,0.82
2019-05-14T16:27:30.242Z,1.00
2019-05-14T16:30:00.259Z,1.20
2019-05-14T16:32:34.849Z,0.87
2019-05-14T16:35:08.902Z,0.70
2019-05-14T16:37:41.526Z,0.50
2019-05-14T16:40:13.663Z,0.80
2019-05-14T16:42:48.315Z,0.80
2019-05-14T16:45:18.955Z,0.50
2019-05-14T16:47:59.999Z,1.00
2019-05-14T16:50:31.656Z,0.60
2019-05-14T16:53:03.897Z,0.60
2019-05-14T16:55:42.694Z,0.73
2019-05-14T16:58:11.785Z,0.73
2019-05-14T17:00:42.351Z,0.90
2019-05-14T17:03:10.804Z,0.90
2019-05-14T17:05:39.185Z,0.70
2019-05-14T17:08:09.806Z,0.83
2019-05-14T17:10:38.800Z,0.93
2019-05-14T17:13:09.063Z,0.70
2019-05-14T17:15:41.095Z,0.60
2019-05-14T17:18:13.157Z,0.60
2019-05-14T17:20:43.100Z,0.60
2019-05-14T17:23:13.374Z,0.70
2019-05-14T17:25:43.475Z,0.70
2019-05-14T17:28:14.581Z,0.50
2019-05-14T17:30:45.817Z,0.70
2019-05-14T17:33:18.746Z,0.60
2019-05-14T17:35:48.790Z,0.80
2019-05-14T17:38:22.418Z,0.60
2019-05-14T17:40:50.826Z,0.60
2019-05-14T17:43:23.279Z,0.70
2019-05-14T17:45:52.071Z,0.80
2019-05-14T17:48:24.805Z,0.57
2019-05-14T17:50:53.215Z,0.70
2019-05-14T17:53:24.258Z,0.60
2019-05-14T17:55:52.642Z,0.60
2019-05-14T17:58:24.177Z,0.70
2019-05-14T18:00:58.302Z,0.80
2019-05-14T18:03:29.008Z,0.70
2019-05-14T18:06:01.113Z,0.67
2019-05-14T18:08:30.113Z,0.80
2019-05-14T18:11:01.815Z,0.80
2019-05-14T18:13:29.977Z,0.63
2019-05-14T18:16:02.786Z,0.80
2019-05-14T18:18:31.263Z,0.90
2019-05-14T18:21:05.919Z,0.90
2019-05-14T18:23:34.301Z,0.83
2019-05-14T18:26:08.677Z,1.00
2019-05-14T18:28:34.453Z,0.80
2019-05-14T18:31:02.845Z,0.83
2019-05-14T18:33:34.317Z,0.80
2019-05-14T18:36:07.293Z,0.80
2019-05-14T18:38:38.874Z,0.70
2019-05-14T18:41:09.732Z,0.63
2019-05-14T18:43:40.337Z,0.70
2019-05-14T18:46:08.726Z,0.80
2019-05-14T18:48:38.761Z,0.60
2019-05-14T18:51:09.879Z,0.90
2019-05-14T18:53:38.529Z,0.90
2019-05-14T18:56:17.477Z,1.00
2019-05-14T18:58:38.857Z,0.80
2019-05-14T19:01:08.615Z,0.90
2019-05-14T19:03:39.698Z,0.90
2019-05-14T19:06:10.300Z,1.00
2019-05-14T19:08:39.505Z,1.20
2019-05-14T19:11:11.928Z,1.20
2019-05-14T19:13:40.316Z,1.50
2019-05-14T19:16:08.711Z,1.60
2019-05-14T19:18:38.597Z,1.70
2019-05-14T19:21:08.832Z,1.80
2019-05-14T19:23:38.424Z,1.53
2019-05-14T19:26:09.409Z,1.17
2019-05-14T19:28:40.557Z,0.90
2019-05-14T19:31:12.065Z,0.77
2019-05-14T19:33:40.965Z,0.87
2019-05-14T19:36:11.016Z,0.90
2019-05-14T19:38:39.413Z,1.10
2019-05-14T19:41:08.890Z,0.73
2019-05-14T19:43:41.338Z,1.13
2019-05-14T19:46:13.036Z,1.20
2019-05-14T19:48:41.412Z,1.20
2019-05-14T19:51:14.125Z,1.30
2019-05-14T19:53:42.461Z,1.67
2019-05-14T19:56:12.481Z,1.50
2019-05-14T19:58:40.871Z,1.50
2019-05-14T20:01:11.965Z,1.40
2019-05-14T20:03:43.366Z,1.13
2019-05-14T20:06:14.667Z,1.17
2019-05-14T20:08:43.057Z,1.43
2019-05-14T20:11:11.448Z,1.43
2019-05-14T20:13:45.650Z,1.50
2019-05-14T20:16:18.306Z,1.30
2019-05-14T20:18:45.801Z,1.27
2019-05-14T20:21:20.031Z,1.10
2019-05-14T20:23:48.423Z,1.20
2019-05-14T20:26:17.784Z,1.03
2019-05-14T20:28:48.321Z,1.10
2019-05-14T20:31:18.167Z,1.40
2019-05-14T20:33:48.678Z,1.20
2019-05-14T20:36:24.371Z,1.20
2019-05-14T20:38:49.074Z,1.03
2019-05-14T20:41:38.730Z,1.20
2019-05-14T20:44:07.458Z,1.20
2019-05-14T20:46:38.816Z,1.70
2019-05-14T20:49:08.804Z,1.70
2019-05-14T20:51:43.362Z,1.70
2019-05-14T20:54:13.401Z,1.70
2019-05-14T20:56:41.796Z,1.50
2019-05-14T20:59:13.207Z,1.60
2019-05-14T21:01:41.591Z,1.40
2019-05-14T21:04:10.303Z,1.60
2019-05-14T21:06:41.481Z,1.63
2019-05-14T21:09:13.084Z,1.70
2019-05-14T21:11:43.015Z,1.20
2019-05-14T21:14:11.650Z,1.40
2019-05-14T21:16:40.037Z,0.90
2019-05-14T21:19:08.645Z,0.87
2019-05-14T21:21:38.584Z,1.07
2019-05-14T21:24:08.888Z,0.90
2019-05-14T21:26:40.618Z,0.70
2019-05-14T21:29:09.018Z,0.90
2019-05-14T21:31:38.471Z,1.10
2019-05-14T21:34:08.136Z,1.20
2019-05-14T21:36:41.201Z,1.10
2019-05-14T21:39:09.894Z,1.00
2019-05-14T21:41:41.252Z,0.93
2019-05-14T21:44:12.581Z,1.20
2019-05-14T21:46:43.147Z,1.07
2019-05-14T21:49:11.559Z,1.20
2019-05-14T21:51:43.719Z,1.20
2019-05-14T21:54:14.749Z,1.10
2019-05-14T21:56:46.108Z,0.90
2019-05-14T21:59:18.908Z,1.00
2019-05-14T22:01:48.778Z,0.90
2019-05-14T22:04:21.721Z,1.13
2019-05-14T22:06:52.583Z,1.07
2019-05-14T22:09:28.477Z,1.27
2019-05-14T22:11:58.297Z,1.00
2019-05-14T22:14:28.334Z,1.10
2019-05-14T22:16:58.414Z,1.07
2019-05-14T22:19:28.694Z,1.13
2019-05-14T22:22:00.195Z,0.90
2019-05-14T22:24:28.812Z,1.07
2019-05-14T22:27:00.714Z,1.27
2019-05-14T22:29:30.098Z,1.13
2019-05-14T22:31:58.750Z,1.10
2019-05-14T22:34:31.794Z,1.10
2019-05-14T22:37:00.414Z,1.13
2019-05-14T22:39:29.256Z,1.17
2019-05-14T22:42:00.238Z,1.23
2019-05-14T22:44:29.199Z,1.50
2019-05-14T22:46:58.752Z,1.50
2019-05-14T22:49:34.055Z,1.50
2019-05-14T22:52:09.543Z,1.50
2019-05-14T22:54:42.618Z,1.23
2019-05-14T22:57:14.075Z,1.27
2019-05-14T22:59:45.406Z,1.50
2019-05-14T23:02:13.801Z,1.30
2019-05-14T23:04:42.183Z,1.10
2019-05-14T23:07:10.583Z,1.00
2019-05-14T23:09:38.968Z,1.03
2019-05-14T23:12:12.384Z,1.40
2019-05-14T23:14:40.815Z,1.23
2019-05-14T23:17:09.202Z,1.30
2019-05-14T23:19:37.610Z,1.30
2019-05-14T23:22:08.885Z,2.07
2019-05-14T23:24:39.124Z,1.63
2019-05-14T23:27:10.340Z,1.57
2019-05-14T23:29:44.995Z,1.40
2019-05-14T23:32:20.633Z,1.70
2019-05-14T23:34:53.649Z,1.30
2019-05-14T23:37:22.033Z,1.73
2019-05-14T23:39:54.069Z,1.50
2019-05-14T23:42:22.445Z,1.50
2019-05-14T23:44:50.842Z,1.30
2019-05-14T23:47:21.989Z,1.40
2019-05-14T23:49:51.782Z,1.87
2019-05-14T23:52:22.846Z,1.33
2019-05-14T23:54:51.475Z,1.70
2019-05-14T23:57:25.525Z,1.40
2019-05-14T23:59:54.143Z,1.30
